Time;durP1;ratioP1;P1;durP2;ratioP2;P2;SDS_P1;SDS_P2;PMS_P1;PMS_P2;Temp;Humidity;BMP_temperature;BMP_pressure;BME280_temperature;BME280_humidity;BME280_pressure;Samples;Min_cycle;Max_cycle;Signal;HPM_P1;HPM_P2
2022/06/02 00:00:47;;;;;;;2.08;1.90;;;9.40;17.40;;;;;;5026471;28;34384;-81
2022/06/02 00:03:40;;;;;;;2.17;2.03;;;9.30;16.70;;;;;;4998976;28;34471;-81
2022/06/02 00:06:46;;;;;;;2.28;1.85;;;9.30;17.10;;;;;;4979173;28;34263;-81
2022/06/02 00:09:39;;;;;;;4.97;2.13;;;9.20;19.00;;;;;;4985407;28;34118;-81
2022/06/02 00:12:24;;;;;;;2.42;2.22;;;9.10;18.50;;;;;;5028921;28;34338;-82
2022/06/02 00:15:14;;;;;;;2.97;1.90;;;9.10;17.00;;;;;;5030241;28;34048;-83
2022/06/02 00:17:54;;;;;;;2.28;2.08;;;9.10;18.50;;;;;;4995780;28;34147;-82
2022/06/02 00:20:36;;;;;;;2.65;2.42;;;9.00;16.60;;;;;;5012817;28;34113;-82
2022/06/02 00:23:31;;;;;;;1.85;1.75;;;9.00;18.00;;;;;;4995049;28;36353;-81
2022/06/02 00:26:20;;;;;;;2.30;2.10;;;8.90;17.80;;;;;;5015103;28;34225;-82
2022/06/02 00:28:57;;;;;;;2.47;2.25;;;8.90;17.80;;;;;;4999112;28;34325;-82
2022/06/02 00:31:48;;;;;;;2.58;2.38;;;8.80;16.50;;;;;;4976491;28;34428;-82
2022/06/02 00:34:29;;;;;;;2.47;2.28;;;8.80;18.40;;;;;;5002339;28;35612;-82
2022/06/02 00:37:11;;;;;;;2.50;2.15;;;8.70;16.60;;;;;;4977723;28;34262;-82
2022/06/02 00:39:38;;;;;;;2.30;2.10;;;8.60;16.90;;;;;;4991749;28;34180;-82
2022/06/02 00:42:30;;;;;;;2.42;2.22;;;8.60;16.40;;;;;;4990459;28;34095;-81
2022/06/02 00:45:01;;;;;;;2.72;2.08;;;8.50;18.50;;;;;;5011444;28;36612;-82
2022/06/02 00:47:53;;;;;;;7.95;2.50;;;8.50;16.90;;;;;;5001423;28;34135;-81
2022/06/02 00:50:42;;;;;;;2.65;2.33;;;8.40;19.20;;;;;;5010257;28;34120;-81
2022/06/02 00:53:32;;;;;;;4.18;2.35;;;8.40;19.40;;;;;;5003146;28;34089;-82
2022/06/02 00:59:16;;;;;;;2.45;2.25;;;8.30;19.70;;;;;;5010095;28;34279;-82
2022/06/02 01:01:42;;;;;;;2.67;2.47;;;8.30;17.90;;;;;;5010787;28;34234;-81
2022/06/02 01:04:14;;;;;;;2.47;2.28;;;8.20;17.00;;;;;;4993181;28;34261;-81
2022/06/02 01:06:51;;;;;;;3.38;2.30;;;8.20;17.70;;;;;;4992845;28;36797;-81
2022/06/02 01:09:47;;;;;;;2.58;2.13;;;8.20;18.70;;;;;;4993034;28;34538;-82
2022/06/02 01:12:42;;;;;;;3.88;2.25;;;8.20;19.90;;;;;;4992290;28;34533;-82
2022/06/02 01:15:39;;;;;;;2.50;2.30;;;8.10;19.70;;;;;;5001583;28;34141;-82
2022/06/02 01:18:40;;;;;;;2.60;2.28;;;8.10;19.50;;;;;;4998299;28;36173;-83
2022/06/02 01:21:35;;;;;;;3.08;2.33;;;8.10;20.10;;;;;;5006502;28;34139;-82
2022/06/02 01:24:20;;;;;;;2.70;2.50;;;8.00;19.30;;;;;;5011072;28;34270;-82
2022/06/02 01:27:18;;;;;;;2.75;2.55;;;8.00;18.60;;;;;;5023677;28;34221;-82
2022/06/02 01:30:03;;;;;;;2.60;2.40;;;7.90;20.70;;;;;;4964247;28;36044;-82
2022/06/02 01:32:49;;;;;;;2.60;2.30;;;7.90;19.20;;;;;;4982184;28;34100;-82
2022/06/02 01:35:37;;;;;;;2.17;1.98;;;7.90;17.80;;;;;;5011699;28;34110;-82
2022/06/02 01:38:19;;;;;;;2.88;2.30;;;7.80;18.20;;;;;;5021973;28;34300;-82
2022/06/02 01:41:06;;;;;;;2.58;2.38;;;7.80;18.40;;;;;;4994423;28;35870;-82
2022/06/02 01:44:03;;;;;;;3.55;2.58;;;7.70;18.70;;;;;;5007646;28;34095;-82
2022/06/02 01:46:42;;;;;;;2.65;2.30;;;7.60;19.40;;;;;;4993659;28;34209;-82
2022/06/02 01:49:32;;;;;;;2.72;2.53;;;7.60;19.30;;;;;;5013465;28;34125;-82
2022/06/02 01:52:21;;;;;;;2.55;2.35;;;7.50;19.70;;;;;;5028980;28;35397;-82
2022/06/02 01:55:12;;;;;;;3.75;2.47;;;7.50;19.00;;;;;;4998718;28;34320;-80
2022/06/02 01:58:01;;;;;;;2.72;2.53;;;7.40;20.60;;;;;;5004095;28;34275;-82
2022/06/02 02:00:32;;;;;;;3.22;2.58;;;7.40;19.20;;;;;;5011626;28;34157;-82
2022/06/02 02:03:28;;;;;;;2.80;2.60;;;7.40;18.40;;;;;;4995343;28;36048;-82
2022/06/02 02:06:06;;;;;;;3.28;2.88;;;7.30;20.00;;;;;;5009095;28;34347;-82
2022/06/02 02:08:56;;;;;;;2.78;2.50;;;7.30;18.50;;;;;;4993575;28;34233;-83
2022/06/02 02:11:44;;;;;;;2.88;2.35;;;7.30;20.00;;;;;;4991498;28;33906;-83
2022/06/02 02:14:33;;;;;;;2.35;2.15;;;7.30;20.30;;;;;;4991685;28;35643;-82
2022/06/02 02:17:21;;;;;;;3.13;2.30;;;7.30;19.20;;;;;;4996940;28;34316;-82
2022/06/02 02:19:58;;;;;;;3.10;2.70;;;7.20;18.80;;;;;;4991775;28;34288;-82
2022/06/02 02:22:41;;;;;;;2.80;2.58;;;7.20;18.60;;;;;;4990502;28;34051;-82
2022/06/02 02:25:21;;;;;;;2.65;2.45;;;7.10;19.20;;;;;;5005171;28;35935;-82
2022/06/02 02:28:13;;;;;;;2.95;2.65;;;7.10;19.80;;;;;;5023616;28;34107;-82
2022/06/02 02:31:07;;;;;;;2.55;2.33;;;7.10;19.70;;;;;;5013403;28;34279;-82
2022/06/02 02:33:54;;;;;;;3.92;2.63;;;7.00;19.80;;;;;;5006472;28;35437;-82
2022/06/02 02:36:42;;;;;;;4.40;2.53;;;6.90;20.00;;;;;;5011703;28;36975;-82
2022/06/02 02:39:43;;;;;;;4.10;2.63;;;6.90;18.90;;;;;;5003463;28;34416;-82
2022/06/02 02:42:30;;;;;;;2.65;2.45;;;6.90;20.60;;;;;;4996582;28;34462;-82
2022/06/02 02:45:36;;;;;;;3.20;2.60;;;6.80;19.70;;;;;;5007335;28;34408;-83
2022/06/02 02:48:27;;;;;;;2.55;2.33;;;6.80;21.40;;;;;;4983296;28;35708;-82
2022/06/02 02:51:14;;;;;;;3.42;2.72;;;6.70;19.40;;;;;;4993831;28;34122;-82
2022/06/02 02:53:49;;;;;;;3.72;2.58;;;6.60;18.90;;;;;;4998347;28;34155;-82
2022/06/02 02:56:36;;;;;;;3.67;2.95;;;6.60;19.10;;;;;;4977284;28;34212;-82
2022/06/02 02:59:19;;;;;;;2.80;2.60;;;6.60;21.00;;;;;;5009845;28;36041;-82
2022/06/02 03:02:15;;;;;;;3.70;2.50;;;6.50;18.90;;;;;;5009652;28;34395;-82
2022/06/02 03:05:05;;;;;;;3.42;2.92;;;6.50;21.20;;;;;;4995343;28;34452;-82
2022/06/02 03:07:32;;;;;;;2.78;2.58;;;6.50;21.20;;;;;;5002557;28;34262;-82
2022/06/02 03:10:15;;;;;;;5.07;2.80;;;6.40;18.60;;;;;;4994316;28;35518;-81
2022/06/02 03:12:58;;;;;;;4.55;2.90;;;6.40;20.20;;;;;;4996041;28;34131;-82
2022/06/02 03:15:36;;;;;;;3.30;2.90;;;6.40;20.50;;;;;;4983462;28;34247;-83
2022/06/02 03:18:33;;;;;;;3.80;2.75;;;6.40;19.50;;;;;;4999218;28;34142;-82
2022/06/02 03:21:14;;;;;;;3.38;2.72;;;6.40;21.70;;;;;;5010460;28;36554;-82
2022/06/02 03:24:09;;;;;;;3.05;2.83;;;6.40;20.00;;;;;;4990752;28;33611;-82
2022/06/02 03:27:07;;;;;;;3.17;2.88;;;6.40;21.00;;;;;;4977977;28;34164;-83
2022/06/02 03:29:49;;;;;;;2.85;2.53;;;6.30;20.90;;;;;;4977724;28;34606;-83
2022/06/02 03:32:40;;;;;;;2.97;2.70;;;6.30;20.40;;;;;;4987558;28;35538;-82
2022/06/02 03:35:34;;;;;;;3.47;2.92;;;6.30;21.30;;;;;;4977967;28;34355;-82
2022/06/02 03:38:24;;;;;;;3.10;2.80;;;6.30;21.00;;;;;;4986776;28;34378;-82
2022/06/02 03:41:18;;;;;;;3.20;2.90;;;6.30;20.20;;;;;;5004774;28;34102;-82
2022/06/02 03:44:20;;;;;;;3.50;2.97;;;6.30;20.30;;;;;;4992683;28;35928;-82
2022/06/02 03:47:08;;;;;;;3.15;2.67;;;6.20;21.40;;;;;;4990916;28;34174;-82
2022/06/02 03:50:01;;;;;;;2.80;2.60;;;6.30;19.70;;;;;;4989641;28;34135;-83
2022/06/02 03:52:52;;;;;;;3.03;2.83;;;6.20;21.70;;;;;;4995375;28;34135;-82
2022/06/02 03:55:47;;;;;;;3.40;3.10;;;6.20;20.70;;;;;;4988708;28;34357;-82
2022/06/02 03:58:41;;;;;;;2.85;2.60;;;6.20;21.50;;;;;;4978642;28;34136;-82
2022/06/02 04:01:11;;;;;;;3.08;2.78;;;6.20;20.50;;;;;;5010889;28;34210;-82
2022/06/02 04:03:54;;;;;;;3.42;3.00;;;6.20;19.20;;;;;;4993112;28;34636;-82
2022/06/02 04:06:46;;;;;;;3.70;2.92;;;6.20;19.80;;;;;;5008462;28;36761;-82
2022/06/02 04:09:32;;;;;;;3.35;3.05;;;6.20;20.00;;;;;;4996048;28;34080;-81
2022/06/02 04:15:24;;;;;;;3.33;3.03;;;6.20;19.90;;;;;;5009425;28;34236;-82
2022/06/02 04:18:04;;;;;;;3.58;2.90;;;6.20;20.90;;;;;;5009139;28;34558;-82
2022/06/02 04:20:44;;;;;;;3.55;3.10;;;6.20;20.40;;;;;;4992918;28;34024;-81
2022/06/02 04:23:45;;;;;;;3.88;3.30;;;6.30;20.70;;;;;;4977572;28;34264;-81
2022/06/02 04:26:35;;;;;;;3.40;3.10;;;6.30;21.80;;;;;;4995173;28;34505;-81
2022/06/02 04:29:22;;;;;;;3.70;3.03;;;6.30;20.30;;;;;;5008180;28;35563;-82
2022/06/02 04:32:08;;;;;;;3.72;3.28;;;6.30;20.90;;;;;;5007944;28;34231;-82
2022/06/02 04:34:55;;;;;;;5.70;3.85;;;6.30;20.30;;;;;;5005360;28;34013;-81
2022/06/02 04:37:50;;;;;;;3.45;3.15;;;6.40;20.30;;;;;;4988970;28;34092;-81
2022/06/02 04:40:49;;;;;;;3.50;3.15;;;6.40;22.50;;;;;;4990338;28;35837;-82
2022/06/02 04:43:35;;;;;;;6.63;3.50;;;6.40;21.70;;;;;;4991711;28;34326;-82
2022/06/02 04:46:25;;;;;;;3.28;2.97;;;6.50;22.30;;;;;;4987323;28;34032;-82
2022/06/02 04:49:04;;;;;;;5.28;3.25;;;6.50;22.80;;;;;;4975858;28;34104;-80
2022/06/02 04:51:48;;;;;;;3.65;3.17;;;6.60;20.20;;;;;;5008234;28;34308;-81
2022/06/02 04:54:39;;;;;;;3.78;3.47;;;6.60;20.20;;;;;;4999800;28;34263;-81
2022/06/02 04:57:16;;;;;;;4.20;3.28;;;6.70;21.70;;;;;;4971659;28;34187;-81
2022/06/02 05:00:04;;;;;;;3.85;3.47;;;6.70;20.50;;;;;;4956000;28;34013;-82
2022/06/02 05:02:58;;;;;;;5.13;3.83;;;6.80;21.10;;;;;;4988242;28;35749;-82
2022/06/02 05:05:51;;;;;;;4.60;3.67;;;6.90;23.90;;;;;;4974443;28;34371;-81
2022/06/02 05:08:46;;;;;;;4.30;3.63;;;7.00;20.90;;;;;;4970193;28;34161;-81
2022/06/02 05:11:31;;;;;;;4.32;3.88;;;7.20;23.00;;;;;;4971423;28;34085;-81
2022/06/02 05:14:27;;;;;;;3.85;3.47;;;7.30;20.80;;;;;;4975463;28;35834;-82
2022/06/02 05:17:12;;;;;;;5.50;4.32;;;7.60;23.90;;;;;;5001603;28;34281;-81
2022/06/02 05:20:10;;;;;;;5.00;4.30;;;8.20;20.80;;;;;;4968546;28;34014;-82
2022/06/02 05:23:02;;;;;;;7.10;4.93;;;9.30;21.90;;;;;;5003858;28;34642;-83
2022/06/02 05:25:47;;;;;;;5.50;4.70;;;10.60;19.00;;;;;;4975038;28;35949;-82
2022/06/02 05:28:33;;;;;;;7.05;3.92;;;11.90;16.40;;;;;;4971676;28;35567;-82
2022/06/02 05:31:31;;;;;;;4.13;3.72;;;13.00;14.10;;;;;;4954998;28;34083;-82
2022/06/02 05:34:27;;;;;;;4.18;3.67;;;14.00;13.90;;;;;;4975549;28;34296;-81
2022/06/02 05:37:17;;;;;;;3.22;2.92;;;15.00;11.80;;;;;;4971979;28;35693;-81
2022/06/02 05:39:58;;;;;;;4.35;3.53;;;15.90;10.30;;;;;;4986433;28;34104;-82
2022/06/02 05:42:47;;;;;;;3.50;2.90;;;16.60;9.40;;;;;;4984045;28;34067;-81
2022/06/02 05:45:30;;;;;;;5.45;3.08;;;17.40;8.20;;;;;;4976338;28;34211;-81
2022/06/02 05:48:15;;;;;;;3.55;3.13;;;18.00;7.20;;;;;;4975719;28;35655;-82
2022/06/02 05:50:50;;;;;;;3.25;2.92;;;18.60;6.70;;;;;;4977050;28;34182;-81
2022/06/02 05:53:41;;;;;;;3.53;2.80;;;19.10;6.30;;;;;;4976040;28;34163;-82
2022/06/02 05:56:30;;;;;;;3.78;2.80;;;19.40;5.00;;;;;;4991665;28;34182;-82
2022/06/02 05:59:21;;;;;;;3.45;2.80;;;19.90;4.40;;;;;;4988281;28;36415;-81
2022/06/02 06:02:16;;;;;;;3.03;2.65;;;20.30;4.20;;;;;;4999848;28;34245;-82
2022/06/02 06:05:01;;;;;;;6.07;3.00;;;20.70;4.20;;;;;;4997443;28;34233;-81
2022/06/02 06:07:56;;;;;;;2.75;2.45;;;21.00;2.70;;;;;;5011721;28;34103;-82
2022/06/02 06:10:35;;;;;;;2.83;2.63;;;21.50;2.80;;;;;;5010430;28;36600;-83
2022/06/02 06:13:34;;;;;;;3.20;2.90;;;21.80;2.80;;;;;;4993392;28;34143;-83
2022/06/02 06:16:20;;;;;;;6.63;2.60;;;22.10;1.00;;;;;;4993546;28;34448;-83
2022/06/02 06:19:16;;;;;;;3.45;2.88;;;22.30;1.50;;;;;;4994116;28;34063;-82
2022/06/02 06:22:10;;;;;;;3.15;2.90;;;22.40;1.40;;;;;;5001454;28;35793;-83
2022/06/02 06:24:59;;;;;;;3.28;2.38;;;22.60;1.50;;;;;;4995639;28;34375;-82
2022/06/02 06:27:40;;;;;;;2.78;2.53;;;22.80;1.70;;;;;;5030083;28;34070;-81
2022/06/02 06:30:16;;;;;;;3.92;2.78;;;23.10;1.40;;;;;;5014415;28;34375;-80
2022/06/02 06:33:15;;;;;;;3.53;3.22;;;23.20;2.00;;;;;;5008424;28;34686;-82
2022/06/02 06:35:58;;;;;;;6.53;3.22;;;23.70;1.50;;;;;;4998751;28;34317;-83
2022/06/02 06:38:50;;;;;;;4.35;3.47;;;24.00;1.20;;;;;;5006383;28;34139;-84
2022/06/02 06:41:51;;;;;;;4.15;3.55;;;24.40;1.00;;;;;;5006034;28;34408;-81
2022/06/02 06:44:38;;;;;;;4.97;3.30;;;24.90;1.00;;;;;;4998242;28;36793;-82
2022/06/02 06:47:19;;;;;;;4.15;3.75;;;25.20;1.00;;;;;;4998160;28;34397;-84
2022/06/02 06:50:20;;;;;;;4.57;3.75;;;25.30;1.00;;;;;;4997297;28;34009;-82
2022/06/02 06:53:00;;;;;;;4.25;3.47;;;25.50;1.00;;;;;;4995035;28;34318;-81
2022/06/02 06:55:51;;;;;;;4.65;3.60;;;25.40;1.00;;;;;;4977640;28;35913;-80
2022/06/02 06:58:42;;;;;;;6.78;3.92;;;25.30;1.00;;;;;;5008111;28;33739;-81
2022/06/02 07:01:42;;;;;;;4.35;3.85;;;25.20;1.00;;;;;;4988330;28;34156;-82
2022/06/02 07:04:31;;;;;;;4.47;3.70;;;25.10;1.00;;;;;;4987880;28;34232;-84
2022/06/02 07:07:10;;;;;;;5.05;4.50;;;25.00;1.00;;;;;;4993994;28;35997;-81
2022/06/02 07:09:58;;;;;;;5.32;3.95;;;24.80;1.00;;;;;;4977297;28;34264;-78
2022/06/02 07:15:30;;;;;;;5.95;4.13;;;24.40;1.00;;;;;;5034039;28;34084;-81
2022/06/02 07:18:19;;;;;;;6.05;4.25;;;24.60;1.00;;;;;;5014284;28;35664;-81
2022/06/02 07:21:07;;;;;;;4.72;3.95;;;24.60;1.00;;;;;;5032644;28;34373;-79
2022/06/02 07:23:57;;;;;;;6.03;4.10;;;24.70;1.00;;;;;;5002420;28;34181;-81
2022/06/02 07:26:41;;;;;;;4.75;3.65;;;24.50;1.00;;;;;;5014567;28;34390;-83
2022/06/02 07:29:29;;;;;;;7.20;4.80;;;24.30;1.00;;;;;;5010599;28;36512;-81
2022/06/02 07:32:25;;;;;;;5.35;4.30;;;24.00;1.00;;;;;;5025998;28;34317;-80
2022/06/02 07:35:22;;;;;;;4.60;4.20;;;23.60;1.00;;;;;;5006083;28;34693;-80
2022/06/02 07:38:17;;;;;;;6.32;4.50;;;23.20;1.00;;;;;;5010487;28;34264;-81
2022/06/02 07:41:15;;;;;;;8.38;4.45;;;23.20;1.00;;;;;;5012076;28;35687;-80
2022/06/02 07:44:13;;;;;;;5.93;4.30;;;23.20;1.00;;;;;;5014321;28;34237;-81
2022/06/02 07:47:10;;;;;;;4.88;4.15;;;23.40;1.00;;;;;;5027845;28;35191;-80
2022/06/02 07:50:00;;;;;;;4.68;4.00;;;23.40;1.00;;;;;;5012541;28;34591;-80
2022/06/02 07:52:45;;;;;;;5.07;4.00;;;23.80;1.00;;;;;;4996953;28;35792;-80
2022/06/02 07:55:26;;;;;;;5.47;4.63;;;24.00;1.00;;;;;;5012240;28;33783;-82
2022/06/02 07:58:13;;;;;;;5.00;4.38;;;24.10;1.00;;;;;;5012565;28;34404;-81
2022/06/02 08:00:51;;;;;;;6.75;4.25;;;24.20;1.00;;;;;;5012102;28;34189;-81
2022/06/02 08:03:45;;;;;;;4.50;3.92;;;24.10;1.00;;;;;;5012328;28;34468;-82
2022/06/02 08:06:28;;;;;;;5.75;4.13;;;24.30;1.00;;;;;;5016779;28;34344;-81
2022/06/02 08:09:27;;;;;;;4.97;4.10;;;24.40;1.00;;;;;;5028488;28;34089;-81
2022/06/02 08:12:13;;;;;;;8.90;3.88;;;24.30;1.00;;;;;;5017931;28;34472;-82
2022/06/02 08:15:12;;;;;;;7.45;4.13;;;24.20;1.00;;;;;;4977422;28;36585;-79
2022/06/02 08:17:56;;;;;;;4.80;3.72;;;24.20;1.00;;;;;;5010552;28;34223;-81
2022/06/02 08:20:46;;;;;;;8.32;4.70;;;24.20;1.00;;;;;;5009481;28;34311;-80
2022/06/02 08:23:37;;;;;;;4.72;3.97;;;23.90;1.00;;;;;;4991115;28;34426;-80
2022/06/02 08:26:10;;;;;;;4.38;3.97;;;23.80;1.00;;;;;;5011812;28;34260;-80
2022/06/02 08:28:57;;;;;;;7.13;4.00;;;23.80;1.20;;;;;;4993981;28;34277;-80
2022/06/02 08:31:56;;;;;;;4.82;4.00;;;23.90;1.00;;;;;;5009751;28;34128;-81
2022/06/02 08:34:49;;;;;;;5.60;4.22;;;23.80;1.00;;;;;;4982227;28;34143;-80
2022/06/02 08:37:39;;;;;;;3.65;3.00;;;23.60;1.00;;;;;;4963101;28;35610;-80
2022/06/02 08:40:34;;;;;;;4.65;3.22;;;23.50;1.00;;;;;;5026198;28;34209;-82
2022/06/02 08:43:29;;;;;;;4.25;3.40;;;23.50;1.00;;;;;;5006671;28;34472;-82
2022/06/02 08:46:27;;;;;;;4.50;3.45;;;23.50;1.00;;;;;;5005086;28;34510;-77
2022/06/02 08:49:24;;;;;;;4.88;3.95;;;23.60;1.00;;;;;;5006285;28;35717;-80
2022/06/02 08:52:25;;;;;;;6.22;3.60;;;23.50;1.00;;;;;;5008111;28;34187;-81
2022/06/02 08:55:22;;;;;;;3.50;3.20;;;23.50;1.00;;;;;;5014328;28;34277;-80
2022/06/02 08:58:17;;;;;;;4.63;3.13;;;23.70;1.00;;;;;;5016183;28;34166;-81
2022/06/02 09:01:11;;;;;;;4.32;3.13;;;23.70;1.00;;;;;;5032717;28;35239;-84
2022/06/02 09:04:16;;;;;;;4.68;4.00;;;23.70;1.00;;;;;;4998550;28;34097;-82
2022/06/02 09:07:09;;;;;;;4.53;4.00;;;23.60;1.00;;;;;;4996564;28;34260;-82
2022/06/02 09:10:01;;;;;;;5.55;3.95;;;23.50;1.00;;;;;;4990809;28;34304;-83
2022/06/02 09:13:06;;;;;;;3.40;3.10;;;23.40;1.00;;;;;;4996518;28;35636;-80
2022/06/02 09:15:53;;;;;;;2.60;2.40;;;23.30;1.00;;;;;;4980722;28;34032;-80
2022/06/02 09:18:54;;;;;;;4.88;3.00;;;23.20;1.00;;;;;;4998703;28;34507;-80
2022/06/02 09:21:29;;;;;;;4.93;3.00;;;23.10;1.00;;;;;;5003484;28;34158;-80
2022/06/02 09:24:18;;;;;;;3.35;3.05;;;23.20;1.00;;;;;;5009577;28;35911;-80
2022/06/02 09:27:19;;;;;;;5.18;3.80;;;23.30;1.00;;;;;;5004863;28;35061;-81
2022/06/02 09:30:05;;;;;;;4.72;3.10;;;23.70;1.00;;;;;;5001825;28;34362;-81
2022/06/02 09:33:33;;;;;;;5.63;3.80;;;23.90;1.00;;;;;;5011059;28;34400;-79
2022/06/02 09:36:16;;;;;;;4.65;2.72;;;24.30;1.00;;;;;;4989961;28;34804;-81
2022/06/02 09:39:02;;;;;;;2.90;2.60;;;24.30;1.00;;;;;;4996414;28;34192;-79
2022/06/02 09:41:57;;;;;;;3.35;2.45;;;24.50;1.00;;;;;;5004352;28;34075;-76
2022/06/02 09:44:34;;;;;;;3.28;2.50;;;24.70;1.00;;;;;;5009990;28;34547;-77
2022/06/02 09:47:15;;;;;;;3.75;2.10;;;24.90;1.00;;;;;;4992372;28;35522;-76
2022/06/02 09:50:10;;;;;;;2.42;2.22;;;24.90;1.00;;;;;;5007145;28;34740;-79
2022/06/02 09:53:04;;;;;;;2.35;2.13;;;25.20;1.00;;;;;;4997857;28;34133;-79
2022/06/02 09:55:58;;;;;;;2.90;1.90;;;25.30;1.00;;;;;;5011763;28;34103;-79
2022/06/02 09:58:47;;;;;;;2.55;1.95;;;25.40;1.00;;;;;;5002422;28;35690;-78
2022/06/02 10:01:37;;;;;;;2.58;2.20;;;25.40;1.00;;;;;;5031148;28;34230;-79
2022/06/02 10:04:35;;;;;;;2.30;2.10;;;25.30;1.00;;;;;;5006205;28;34290;-85
2022/06/02 10:07:21;;;;;;;2.00;1.55;;;25.30;1.00;;;;;;4996233;28;34064;-83
2022/06/02 10:10:18;;;;;;;2.00;1.80;;;25.40;1.00;;;;;;5008911;28;34464;-78
2022/06/02 10:13:19;;;;;;;2.10;1.70;;;25.50;1.00;;;;;;4971053;28;34288;-80
2022/06/02 10:19:21;;;;;;;2.22;2.03;;;25.80;1.00;;;;;;5025203;28;34106;-78
2022/06/02 10:22:14;;;;;;;2.17;1.80;;;25.60;1.00;;;;;;5002265;28;35780;-78
2022/06/02 10:25:00;;;;;;;1.80;1.52;;;25.50;1.00;;;;;;4997174;28;34219;-78
2022/06/02 10:27:57;;;;;;;3.97;2.00;;;25.60;1.00;;;;;;4991205;28;34290;-78
2022/06/02 10:30:47;;;;;;;1.25;1.15;;;25.60;1.00;;;;;;5027189;28;34259;-78
2022/06/02 10:33:52;;;;;;;1.95;1.75;;;25.70;1.00;;;;;;5006110;28;36054;-77
2022/06/02 10:36:42;;;;;;;1.30;1.20;;;25.70;1.00;;;;;;4995093;28;34229;-77
2022/06/02 10:39:36;;;;;;;1.80;1.50;;;25.70;1.00;;;;;;4998643;28;34553;-77
2022/06/02 10:42:37;;;;;;;1.70;1.60;;;25.70;1.00;;;;;;5001517;28;34302;-78
2022/06/02 10:45:38;;;;;;;3.58;1.50;;;25.80;1.00;;;;;;4987636;28;35704;-80
2022/06/02 10:48:34;;;;;;;1.27;1.17;;;25.90;1.00;;;;;;4995583;28;34114;-79
2022/06/02 10:51:27;;;;;;;1.50;1.40;;;26.10;1.00;;;;;;5030580;28;34002;-82
2022/06/02 10:54:22;;;;;;;1.63;1.35;;;26.30;1.00;;;;;;5013645;28;34347;-80
2022/06/02 10:57:12;;;;;;;1.27;1.17;;;26.50;1.00;;;;;;5011915;28;35792;-78
2022/06/02 11:00:13;;;;;;;1.10;1.10;;;26.70;1.00;;;;;;5011301;28;34428;-80
2022/06/02 11:03:14;;;;;;;1.23;1.13;;;26.80;1.00;;;;;;4997425;28;34107;-77
2022/06/02 11:06:14;;;;;;;2.38;0.95;;;26.80;1.00;;;;;;5007127;28;34175;-79
2022/06/02 11:09:10;;;;;;;0.95;0.95;;;27.00;1.00;;;;;;5011792;28;35747;-78
2022/06/02 11:12:00;;;;;;;1.42;1.33;;;27.30;1.00;;;;;;5012497;28;34819;-78
2022/06/02 11:15:01;;;;;;;1.60;1.25;;;27.00;1.00;;;;;;5007833;28;34340;-78
2022/06/02 11:17:57;;;;;;;2.50;1.35;;;27.20;1.00;;;;;;5002603;28;34584;-80
2022/06/02 11:20:54;;;;;;;1.30;1.20;;;27.10;1.00;;;;;;5003222;28;35826;-77
2022/06/02 11:23:45;;;;;;;1.55;0.98;;;27.00;1.00;;;;;;4993390;28;34067;-80
2022/06/02 11:26:51;;;;;;;1.20;1.00;;;26.90;1.00;;;;;;4977345;28;34330;-76
2022/06/02 11:29:52;;;;;;;1.10;1.10;;;26.90;1.00;;;;;;4964719;28;34462;-78
2022/06/02 11:32:36;;;;;;;0.90;0.90;;;27.00;1.00;;;;;;4972225;28;36031;-82
2022/06/02 11:35:33;;;;;;;0.90;0.90;;;26.80;1.00;;;;;;4994802;28;34100;-79
2022/06/02 11:38:29;;;;;;;1.20;0.90;;;26.80;1.00;;;;;;4988169;28;34304;-83
2022/06/02 11:41:25;;;;;;;2.85;0.80;;;26.80;1.00;;;;;;5005719;28;34390;-81
2022/06/02 11:44:14;;;;;;;1.05;0.70;;;26.90;1.00;;;;;;4993633;28;35708;-81
2022/06/02 11:47:15;;;;;;;0.80;0.80;;;26.90;1.00;;;;;;4970080;28;34080;-78
2022/06/02 11:50:13;;;;;;;1.17;1.10;;;27.00;1.00;;;;;;4977981;28;34194;-74
2022/06/02 11:53:09;;;;;;;1.15;1.00;;;27.10;1.00;;;;;;4964030;28;34250;-77
2022/06/02 11:55:43;;;;;;;1.58;1.15;;;27.20;1.00;;;;;;4980595;28;35688;-78
2022/06/02 11:58:33;;;;;;;0.75;0.75;;;27.20;1.00;;;;;;4986630;28;34151;-77
2022/06/02 12:01:28;;;;;;;1.00;0.80;;;27.40;1.00;;;;;;4979773;28;34061;-79
2022/06/02 12:04:22;;;;;;;1.45;0.90;;;27.50;1.00;;;;;;4978776;28;34219;-76
2022/06/02 12:07:20;;;;;;;1.60;0.98;;;27.50;1.00;;;;;;4983744;28;34488;-77
2022/06/02 12:10:13;;;;;;;1.02;0.70;;;27.50;1.00;;;;;;4974323;28;34567;-81
2022/06/02 12:13:01;;;;;;;1.25;0.80;;;27.50;1.00;;;;;;5008139;28;34123;-77
2022/06/02 12:15:57;;;;;;;1.27;0.60;;;27.30;1.00;;;;;;4963496;28;34333;-77
2022/06/02 12:18:34;;;;;;;2.22;0.73;;;27.30;1.00;;;;;;4983251;28;35791;-78
2022/06/02 12:21:34;;;;;;;1.25;1.15;;;27.30;1.00;;;;;;4984299;28;34292;-77
2022/06/02 12:24:22;;;;;;;0.80;0.80;;;27.30;1.00;;;;;;4973602;28;34154;-78
2022/06/02 12:27:18;;;;;;;2.35;0.77;;;27.40;1.00;;;;;;5002591;28;34235;-76
2022/06/02 12:30:18;;;;;;;1.95;1.10;;;27.60;1.00;;;;;;4992082;28;35635;-78
2022/06/02 12:33:13;;;;;;;0.88;0.70;;;27.60;1.00;;;;;;5006188;28;34192;-76
2022/06/02 12:36:09;;;;;;;0.75;0.70;;;27.70;1.00;;;;;;4978089;28;33789;-77
2022/06/02 12:39:10;;;;;;;1.08;0.60;;;28.00;1.00;;;;;;4977487;28;34473;-76
2022/06/02 12:42:05;;;;;;;4.53;0.80;;;28.10;1.00;;;;;;4973127;28;36026;-78
2022/06/02 12:44:51;;;;;;;3.38;1.13;;;28.00;1.00;;;;;;4976693;28;34229;-78
2022/06/02 12:47:47;;;;;;;0.95;0.60;;;28.00;1.00;;;;;;4966754;28;34057;-79
2022/06/02 12:50:34;;;;;;;0.68;0.68;;;28.10;1.00;;;;;;4978223;28;34225;-78
2022/06/02 12:53:30;;;;;;;2.30;0.47;;;28.30;1.00;;;;;;4992162;28;34218;-76
2022/06/02 12:56:18;;;;;;;1.83;0.75;;;28.20;1.00;;;;;;4991326;28;34414;-79
2022/06/02 12:59:12;;;;;;;2.20;0.70;;;28.30;1.00;;;;;;5001129;28;34306;-80
2022/06/02 13:01:58;;;;;;;3.25;0.77;;;28.10;1.00;;;;;;4991094;28;34645;-78
2022/06/02 13:04:53;;;;;;;0.50;0.50;;;28.10;1.00;;;;;;4991324;28;34431;-80
2022/06/02 13:07:49;;;;;;;1.90;0.57;;;28.10;1.00;;;;;;4989017;28;34391;-79
2022/06/02 13:10:35;;;;;;;0.50;0.50;;;28.10;1.00;;;;;;5002041;28;34165;-76
2022/06/02 13:13:32;;;;;;;3.35;0.70;;;28.00;1.00;;;;;;4969977;28;34363;-75
2022/06/02 13:16:28;;;;;;;1.25;0.60;;;27.70;1.00;;;;;;4987402;28;36321;-77
2022/06/02 13:19:26;;;;;;;0.50;0.50;;;27.70;1.00;;;;;;5004661;28;34071;-76
2022/06/02 13:22:22;;;;;;;0.50;0.50;;;27.70;1.00;;;;;;5018239;28;34357;-79
2022/06/02 13:25:15;;;;;;;0.50;0.50;;;27.80;1.00;;;;;;4997012;28;34316;-78
2022/06/02 13:28:11;;;;;;;0.40;0.40;;;27.70;1.00;;;;;;5007290;28;35570;-82
2022/06/02 13:31:10;;;;;;;1.08;0.98;;;27.70;1.00;;;;;;5014473;28;33949;-77
2022/06/02 13:34:05;;;;;;;0.93;0.60;;;27.70;1.00;;;;;;4988267;28;34501;-74
2022/06/02 13:36:54;;;;;;;0.60;0.60;;;27.80;1.00;;;;;;5002887;28;34217;-79
2022/06/02 13:39:51;;;;;;;0.50;0.50;;;28.10;1.00;;;;;;5003642;28;35815;-78
2022/06/02 13:42:52;;;;;;;1.85;0.60;;;28.20;1.00;;;;;;4997870;28;34301;-76
2022/06/02 13:45:58;;;;;;;0.60;0.60;;;28.10;1.00;;;;;;5020088;28;34186;-79
2022/06/02 13:48:55;;;;;;;0.60;0.50;;;28.10;1.00;;;;;;4988148;28;34012;-79
2022/06/02 13:51:52;;;;;;;0.65;0.65;;;28.10;1.00;;;;;;4984939;28;35673;-77
2022/06/02 13:57:50;;;;;;;0.70;0.70;;;28.20;1.00;;;;;;5017581;28;34169;-80
2022/06/02 14:00:28;;;;;;;1.10;0.80;;;28.30;1.00;;;;;;5018253;28;34429;-78
2022/06/02 14:03:18;;;;;;;0.55;0.50;;;28.30;1.00;;;;;;5012723;28;35731;-79
2022/06/02 14:06:05;;;;;;;0.98;0.70;;;28.10;1.00;;;;;;5015205;28;34476;-79
2022/06/02 14:08:49;;;;;;;0.55;0.55;;;28.00;1.00;;;;;;5014856;28;34061;-81
2022/06/02 14:11:45;;;;;;;0.60;0.60;;;27.90;1.00;;;;;;5011239;28;34419;-80
2022/06/02 14:14:31;;;;;;;0.60;0.60;;;27.90;1.00;;;;;;5012846;28;35601;-79
2022/06/02 14:17:20;;;;;;;1.63;0.60;;;27.80;1.00;;;;;;5011439;28;34393;-76
2022/06/02 14:20:17;;;;;;;0.80;0.70;;;27.70;1.00;;;;;;5013743;28;34238;-80
2022/06/02 14:23:04;;;;;;;1.17;0.80;;;27.80;1.00;;;;;;5004700;28;34075;-80
2022/06/02 14:25:54;;;;;;;3.22;0.90;;;27.70;1.00;;;;;;5015355;28;35558;-76
2022/06/02 14:28:46;;;;;;;1.15;0.80;;;27.70;1.00;;;;;;4993785;28;35592;-81
2022/06/02 14:31:31;;;;;;;0.80;0.80;;;27.80;1.00;;;;;;4995945;28;34161;-81
2022/06/02 14:34:20;;;;;;;0.80;0.80;;;27.80;1.00;;;;;;5013484;28;34124;-76
2022/06/02 14:37:13;;;;;;;3.47;0.60;;;28.00;1.00;;;;;;5010623;28;35935;-78
2022/06/02 14:39:50;;;;;;;0.70;0.70;;;28.00;1.00;;;;;;5019905;28;34198;-77
2022/06/02 14:43:03;;;;;;;0.52;0.52;;;28.00;1.00;;;;;;5013420;28;34213;-79
2022/06/02 14:46:04;;;;;;;4.60;1.00;;;28.10;1.00;;;;;;4992455;28;34185;-78
2022/06/02 14:48:44;;;;;;;0.60;0.60;;;28.30;1.00;;;;;;5000189;28;35666;-78
2022/06/02 14:51:21;;;;;;;0.70;0.70;;;28.40;1.00;;;;;;4997564;28;34236;-81
2022/06/02 14:54:03;;;;;;;2.25;0.68;;;28.50;1.00;;;;;;5030163;28;34216;-79
2022/06/02 14:56:50;;;;;;;0.60;0.60;;;28.40;1.00;;;;;;5009026;28;34428;-77
2022/06/02 14:59:36;;;;;;;1.67;0.90;;;28.30;1.00;;;;;;5010380;28;36854;-77
2022/06/02 15:02:43;;;;;;;1.48;0.77;;;28.40;1.00;;;;;;5009023;28;34391;-80
2022/06/02 15:05:39;;;;;;;1.00;0.70;;;28.40;1.00;;;;;;5013005;28;34271;-81
2022/06/02 15:08:41;;;;;;;0.65;0.65;;;28.30;1.00;;;;;;4995405;28;34184;-79
2022/06/02 15:11:38;;;;;;;0.70;0.63;;;28.10;1.00;;;;;;4988298;28;35809;-79
2022/06/02 15:14:21;;;;;;;0.63;0.63;;;28.10;1.00;;;;;;5010174;28;34163;-79